KOLM

Olympia Regional Airport

Olympia, Washington, USA
METAR KOLM 182154Z VRB04KT 10SM CLR 29/13 A2994 RMK AO2 SLP138 T02890133 $
Observed Flight Rules
Jun-18 @ 21:54 UTC (50 minutes ago) Visual Flight Rules
Wind Visibility Clouds
Variable at 4 knots 10 miles
  • Clear skies
Temperatures Readings
Current 29°C / 84°F
Dewpoint 13°C / 55°F
Humidity 37%
Altimeter 29.94" Hg
Pressure 1013.8 hPa
Elevation 58
METAR KOLM 182154Z VRB04KT 10SM CLR 29/13 A2994 RMK AO2 SLP138 T02890133 $
Observed Flight Rules
Jun-18 @ 21:54 UTC
(50 minutes ago)
VFR
Wind Visibility
Variable at 4 knots 10 miles
Clouds
  • Clear skies
Temperature Dewpoint
29°C / 84°F 13°C / 55°F
Humidity Altimeter Pressure
37% 29.94" Hg 1013.8 hPa